createdAt,value
2022-08-08T00:00:51.038Z,100844.50
2022-08-08T00:03:32.011Z,100847.97
2022-08-08T00:06:12.828Z,100839.03
2022-08-08T00:09:04.129Z,100833.81
2022-08-08T00:11:47.109Z,100834.31
2022-08-08T00:14:59.017Z,100841.72
2022-08-08T00:17:35.383Z,100841.56
2022-08-08T00:20:25.730Z,100828.94
2022-08-08T00:22:59.984Z,100836.88
2022-08-08T00:25:46.332Z,100842.88
2022-08-08T00:28:35.622Z,100835.63
2022-08-08T00:32:16.359Z,100845.41
2022-08-08T00:34:52.931Z,100844.91
2022-08-08T00:37:46.874Z,100843.00
2022-08-08T00:41:10.572Z,100848.72
2022-08-08T00:44:00.695Z,100854.81
2022-08-08T00:46:57.026Z,100851.31
2022-08-08T00:49:42.262Z,100851.97
2022-08-08T00:52:39.161Z,100836.22
2022-08-08T00:55:35.951Z,100840.56
2022-08-08T00:58:31.932Z,100842.59
2022-08-08T01:01:11.530Z,100847.22
2022-08-08T01:04:07.100Z,100850.09
2022-08-08T01:07:16.225Z,100846.50
2022-08-08T01:10:16.132Z,100844.44
2022-08-08T01:12:47.268Z,100834.34
2022-08-08T01:15:54.142Z,100835.91
2022-08-08T01:18:53.524Z,100832.91
2022-08-08T01:22:12.181Z,100839.75
2022-08-08T01:24:38.449Z,100830.94
2022-08-08T01:27:44.106Z,100831.63
2022-08-08T01:30:21.360Z,100836.50
2022-08-08T01:33:54.195Z,100830.34
2022-08-08T01:37:51.131Z,100831.81
2022-08-08T01:40:35.682Z,100822.44
2022-08-08T01:43:24.968Z,100824.59
2022-08-08T01:46:21.871Z,100818.16
2022-08-08T01:49:23.028Z,100821.63
2022-08-08T01:52:59.154Z,100818.50
2022-08-08T01:56:28.799Z,100815.91
2022-08-08T01:58:47.077Z,100815.47
2022-08-08T02:01:59.555Z,100811.34
2022-08-08T02:04:48.250Z,100817.84
2022-08-08T02:07:41.698Z,100813.31
2022-08-08T02:10:29.744Z,100806.75
2022-08-08T02:13:53.006Z,100807.38
2022-08-08T02:16:50.681Z,100802.75
2022-08-08T02:19:57.152Z,100799.72
2022-08-08T02:22:31.986Z,100806.91
2022-08-08T02:26:18.245Z,100806.81
2022-08-08T02:29:03.807Z,100798.25
2022-08-08T02:32:05.386Z,100792.84
2022-08-08T02:35:10.735Z,100795.25
2022-08-08T02:37:56.696Z,100795.81
2022-08-08T02:41:03.138Z,100797.28
2022-08-08T02:44:37.709Z,100807.72
2022-08-08T02:51:55.170Z,100809.19
2022-08-08T02:59:57.596Z,100802.94
2022-08-08T03:03:05.616Z,100805.19
2022-08-08T03:06:07.653Z,100802.91
2022-08-08T03:09:04.478Z,100806.97
2022-08-08T03:16:35.782Z,100787.59
2022-08-08T03:19:20.783Z,100785.28
2022-08-08T03:21:58.761Z,100809.19
2022-08-08T03:24:30.095Z,100801.03
2022-08-08T03:27:43.643Z,100800.06
2022-08-08T03:30:32.167Z,100803.31
2022-08-08T03:33:57.044Z,100793.94
2022-08-08T03:42:11.530Z,100798.72
2022-08-08T03:44:35.029Z,100798.22
2022-08-08T03:47:19.182Z,100790.69
2022-08-08T03:50:00.867Z,100807.59
2022-08-08T03:52:36.065Z,100800.53
2022-08-08T03:55:55.159Z,100814.25
2022-08-08T03:58:31.084Z,100804.16
2022-08-08T04:01:23.080Z,100806.66
2022-08-08T04:03:58.958Z,100799.66
2022-08-08T04:06:30.986Z,100812.00
2022-08-08T04:10:05.148Z,100799.66
2022-08-08T04:14:02.691Z,100804.47
2022-08-08T04:16:20.794Z,100799.94
2022-08-08T04:20:28.642Z,100818.44
2022-08-08T04:26:35.517Z,100819.25
2022-08-08T04:29:11.148Z,100820.53
2022-08-08T04:31:58.656Z,100817.84
2022-08-08T04:34:32.387Z,100822.69
2022-08-08T04:37:12.546Z,100823.03
2022-08-08T04:40:04.022Z,100817.16
2022-08-08T04:42:36.596Z,100814.00
2022-08-08T04:45:07.722Z,100825.00
2022-08-08T04:47:46.251Z,100816.31
2022-08-08T04:50:23.919Z,100826.72
2022-08-08T04:52:58.545Z,100817.50
2022-08-08T04:55:37.675Z,100816.06
2022-08-08T04:58:17.603Z,100818.13
2022-08-08T05:00:47.581Z,100825.69
2022-08-08T05:03:18.969Z,100822.69
2022-08-08T05:06:13.108Z,100813.56
2022-08-08T05:08:51.680Z,100819.44
2022-08-08T05:11:24.393Z,100832.00
2022-08-08T08:43:33.576Z,100970.34
2022-08-08T08:46:17.728Z,100977.59
2022-08-08T08:48:51.596Z,100971.81
2022-08-08T08:55:49.507Z,100986.47
2022-08-08T08:58:52.368Z,100980.78
2022-08-08T09:01:47.856Z,100977.88
2022-08-08T09:04:31.034Z,100979.06
2022-08-08T09:07:12.259Z,100976.94
2022-08-08T09:10:04.837Z,100979.53
2022-08-08T09:12:46.571Z,100968.97
2022-08-08T09:15:41.333Z,100977.75
2022-08-08T09:19:07.244Z,100967.97
2022-08-08T09:22:01.801Z,100970.41
2022-08-08T09:42:52.104Z,100964.88
2022-08-08T09:45:54.752Z,100955.13
2022-08-08T09:48:28.923Z,100953.91
2022-08-08T09:51:06.180Z,100951.94
2022-08-08T09:58:48.979Z,100941.81
2022-08-08T10:06:19.267Z,100942.50
2022-08-08T10:32:05.536Z,100917.56
2022-08-08T10:45:23.100Z,100905.97
2022-08-08T11:09:32.154Z,100882.94
2022-08-08T11:12:13.515Z,100892.06
2022-08-08T11:14:53.079Z,100881.78
2022-08-08T11:17:59.684Z,100889.97
2022-08-08T11:20:18.103Z,100886.03
2022-08-08T11:22:55.334Z,100889.66
2022-08-08T11:25:52.150Z,100885.03
2022-08-08T11:28:23.054Z,100882.78
2022-08-08T11:30:57.916Z,100879.34
2022-08-08T11:33:51.027Z,100872.91
2022-08-08T11:36:16.544Z,100868.47
2022-08-08T11:38:53.999Z,100877.50
2022-08-08T11:41:32.566Z,100864.16
2022-08-08T11:44:02.851Z,100864.22
2022-08-08T11:46:36.807Z,100865.66
2022-08-08T11:49:09.352Z,100869.25
2022-08-08T11:51:49.914Z,100865.47
2022-08-08T11:54:33.473Z,100864.59
2022-08-08T11:57:14.178Z,100866.81
2022-08-08T12:00:07.318Z,100863.09
2022-08-08T12:02:51.110Z,100872.13
2022-08-08T12:05:36.345Z,100868.34
2022-08-08T12:08:04.817Z,100864.41
2022-08-08T12:10:33.657Z,100854.94
2022-08-08T12:13:10.674Z,100854.97
2022-08-08T12:15:46.862Z,100858.00
2022-08-08T12:18:24.573Z,100861.44
2022-08-08T12:20:55.229Z,100854.28
2022-08-08T12:23:44.024Z,100855.88
2022-08-08T12:26:42.694Z,100857.66
2022-08-08T12:29:36.502Z,100854.88
2022-08-08T12:32:17.314Z,100852.34
2022-08-08T12:34:52.954Z,100848.53
2022-08-08T12:37:41.560Z,100854.88
2022-08-08T12:40:24.085Z,100850.78
2022-08-08T12:48:36.428Z,100847.00
2022-08-08T12:51:10.761Z,100844.59
2022-08-08T12:53:58.976Z,100847.66
2022-08-08T13:02:09.593Z,100845.81
2022-08-08T13:04:37.705Z,100848.81
2022-08-08T13:07:12.071Z,100834.31
2022-08-08T13:10:10.736Z,100840.72
2022-08-08T13:12:47.037Z,100835.34
2022-08-08T13:15:26.483Z,100830.34
2022-08-08T13:18:11.266Z,100833.63
2022-08-08T13:26:19.596Z,100816.19
2022-08-08T13:37:05.995Z,100815.06
2022-08-08T13:42:25.426Z,100803.84
2022-08-08T13:47:55.651Z,100798.03
2022-08-08T13:50:39.645Z,100785.13
2022-08-08T13:56:12.366Z,100791.84
2022-08-08T14:01:52.503Z,100783.44
2022-08-08T14:04:24.376Z,100787.63
2022-08-08T14:07:04.638Z,100773.38
2022-08-08T14:10:05.688Z,100779.06
2022-08-08T14:12:28.328Z,100781.28
2022-08-08T14:14:56.691Z,100780.06
2022-08-08T14:17:58.900Z,100779.47
2022-08-08T14:20:15.545Z,100775.63
2022-08-08T14:24:04.238Z,100771.28
2022-08-08T14:26:27.968Z,100761.25
2022-08-08T14:28:58.832Z,100758.22
2022-08-08T14:32:06.012Z,100743.63
2022-08-08T14:34:22.979Z,100749.28
2022-08-08T14:36:56.147Z,100756.81
2022-08-08T14:39:24.663Z,100748.59
2022-08-08T14:42:03.362Z,100751.16
2022-08-08T14:44:39.396Z,100740.00
2022-08-08T14:47:16.872Z,100743.50
2022-08-08T14:50:06.461Z,100742.56
2022-08-08T14:52:53.120Z,100745.94
2022-08-08T14:55:35.262Z,100749.91
2022-08-08T14:58:11.677Z,100753.91
2022-08-08T15:00:45.241Z,100744.66
2022-08-08T15:03:17.079Z,100740.69
2022-08-08T15:05:53.301Z,100738.63
2022-08-08T15:08:35.541Z,100743.00
2022-08-08T15:11:08.981Z,100743.50
2022-08-08T15:14:02.795Z,100744.19
2022-08-08T15:16:34.672Z,100741.53
2022-08-08T15:19:03.582Z,100748.75
2022-08-08T15:21:31.327Z,100743.84
2022-08-08T15:23:59.422Z,100746.66
2022-08-08T15:26:28.903Z,100749.53
2022-08-08T15:28:57.441Z,100751.72
2022-08-08T15:32:03.232Z,100757.19
2022-08-08T15:34:18.494Z,100758.28
2022-08-08T15:37:03.126Z,100762.34
2022-08-08T15:39:38.453Z,100759.00
2022-08-08T15:42:18.169Z,100758.31
2022-08-08T15:45:01.471Z,100755.66
2022-08-08T15:47:31.981Z,100763.06
2022-08-08T15:50:00.095Z,100750.50
2022-08-08T15:52:27.941Z,100759.66
2022-08-08T15:54:58.910Z,100766.59
2022-08-08T15:57:39.747Z,100762.81
2022-08-08T16:00:28.413Z,100759.78
2022-08-08T16:03:06.434Z,100756.66
2022-08-08T16:32:38.044Z,100759.03
2022-08-08T16:35:26.012Z,100757.13
2022-08-08T16:37:54.870Z,100750.13
2022-08-08T16:40:29.155Z,100750.13
2022-08-08T16:42:59.481Z,100760.03
2022-08-08T16:46:37.691Z,100754.47
2022-08-08T16:48:15.909Z,100751.66
2022-08-08T16:50:44.112Z,100751.78
2022-08-08T16:55:04.080Z,100751.75
2022-08-08T16:56:14.139Z,100747.72
2022-08-08T16:58:42.878Z,100757.13
2022-08-08T17:01:13.007Z,100756.00
2022-08-08T17:04:00.293Z,100747.63
2022-08-08T17:06:36.189Z,100749.75
2022-08-08T17:09:06.017Z,100749.06
2022-08-08T17:11:48.128Z,100752.50
2022-08-08T17:14:19.427Z,100757.81
2022-08-08T17:16:51.885Z,100758.66
2022-08-08T17:19:30.216Z,100759.75
2022-08-08T17:22:01.890Z,100766.47
2022-08-08T17:24:31.095Z,100768.66
2022-08-08T17:27:01.216Z,100773.25
2022-08-08T17:29:33.714Z,100772.72
2022-08-08T17:32:04.380Z,100772.06
2022-08-08T17:34:53.384Z,100775.06
2022-08-08T17:37:23.143Z,100787.50
2022-08-08T17:40:06.191Z,100778.88
2022-08-08T17:46:07.943Z,100789.22
2022-08-08T17:48:35.593Z,100784.66
2022-08-08T17:51:03.220Z,100794.00
2022-08-08T17:53:42.730Z,100801.63
2022-08-08T17:56:11.319Z,100793.97
2022-08-08T17:58:39.947Z,100801.19
2022-08-08T18:01:10.225Z,100807.44
2022-08-08T18:03:38.543Z,100804.09
2022-08-08T18:06:21.986Z,100818.19
2022-08-08T18:08:55.366Z,100811.88
2022-08-08T18:11:23.123Z,100816.78
2022-08-08T18:13:50.654Z,100822.47
2022-08-08T18:16:23.442Z,100827.97
2022-08-08T18:18:58.610Z,100838.34
2022-08-08T18:21:58.942Z,100827.94
2022-08-08T18:24:24.400Z,100833.41
2022-08-08T18:27:00.891Z,100843.13
2022-08-08T18:29:37.223Z,100843.38
2022-08-08T18:32:08.599Z,100836.38
2022-08-08T18:34:40.390Z,100845.41
2022-08-08T18:37:17.761Z,100844.88
2022-08-08T18:39:59.687Z,100856.97
2022-08-08T18:42:27.842Z,100861.28
2022-08-08T18:44:57.393Z,100863.25
2022-08-08T18:47:26.762Z,100864.78
2022-08-08T18:49:58.638Z,100870.34
2022-08-08T18:52:29.709Z,100879.00
2022-08-08T18:55:10.933Z,100882.97
2022-08-08T18:57:43.360Z,100889.03
2022-08-08T19:00:20.459Z,100883.28
2022-08-08T19:02:57.838Z,100879.59
2022-08-08T19:05:38.519Z,100885.63
2022-08-08T19:08:24.864Z,100890.72
2022-08-08T19:11:01.733Z,100896.31
2022-08-08T19:13:38.330Z,100901.88
2022-08-08T19:16:20.357Z,100898.69
2022-08-08T19:19:00.453Z,100904.44
2022-08-08T19:21:33.352Z,100906.84
2022-08-08T19:24:39.102Z,100909.19
2022-08-08T19:27:05.782Z,100923.03
2022-08-08T19:29:35.681Z,100916.28
2022-08-08T19:32:12.836Z,100926.31
2022-08-08T19:34:41.973Z,100919.06
2022-08-08T19:37:15.975Z,100927.50
2022-08-08T19:39:45.500Z,100922.53
2022-08-08T19:42:13.776Z,100930.03
2022-08-08T19:44:45.593Z,100930.84
2022-08-08T19:47:14.636Z,100925.72
2022-08-08T19:50:00.083Z,100926.47
2022-08-08T19:52:35.043Z,100931.59
2022-08-08T19:55:09.647Z,100932.09
2022-08-08T19:57:41.258Z,100933.19
2022-08-08T20:00:29.321Z,100933.19
2022-08-08T20:03:14.565Z,100936.94
2022-08-08T20:06:14.361Z,100931.91
2022-08-08T20:08:38.991Z,100936.31
2022-08-08T20:11:10.264Z,100931.22
2022-08-08T20:14:12.475Z,100933.56
2022-08-08T20:16:29.790Z,100937.97
2022-08-08T20:18:59.495Z,100948.25
2022-08-08T20:21:31.918Z,100950.63
2022-08-08T20:24:07.749Z,100948.13
2022-08-08T20:26:38.190Z,100944.59
2022-08-08T20:29:06.954Z,100944.88
2022-08-08T20:32:07.243Z,100945.94
2022-08-08T20:34:29.834Z,100937.19
2022-08-08T20:37:02.240Z,100948.19
2022-08-08T20:39:39.295Z,100937.59
2022-08-08T20:42:29.571Z,100939.44
2022-08-08T20:44:59.016Z,100939.03
2022-08-08T20:47:35.927Z,100933.44
2022-08-08T20:50:14.785Z,100932.50
2022-08-08T20:52:48.224Z,100943.06
2022-08-08T20:55:25.620Z,100946.50
2022-08-08T20:57:54.124Z,100951.16
2022-08-08T21:00:26.179Z,100951.34
2022-08-08T21:02:54.299Z,100956.22
2022-08-08T21:05:49.223Z,100962.44
2022-08-08T21:08:36.208Z,100959.88
2022-08-08T21:11:11.744Z,100967.81
2022-08-08T21:13:40.918Z,100955.13
2022-08-08T21:16:20.565Z,100969.25
2022-08-08T21:18:59.859Z,100968.28
2022-08-08T21:21:39.534Z,100973.41
2022-08-08T21:24:19.246Z,100966.94
2022-08-08T21:26:58.085Z,100975.31
2022-08-08T21:30:03.001Z,100977.75
2022-08-08T21:32:24.952Z,100985.03
2022-08-08T21:36:14.381Z,100985.94
2022-08-08T21:37:55.743Z,101000.56
2022-08-08T21:40:42.326Z,100993.03
2022-08-08T21:43:33.882Z,100988.97
2022-08-08T21:48:07.422Z,101009.44
2022-08-08T21:49:47.639Z,101007.84
2022-08-08T21:54:33.710Z,101001.81
2022-08-08T21:56:18.096Z,101009.50
2022-08-08T21:58:07.599Z,101016.34
2022-08-08T22:00:43.888Z,101038.44
2022-08-08T22:03:14.410Z,101021.63
2022-08-08T22:05:45.924Z,101031.53
2022-08-08T22:08:16.261Z,101037.88
2022-08-08T22:10:54.019Z,101037.63
2022-08-08T22:13:22.419Z,101043.88
2022-08-08T22:15:59.616Z,101042.88
2022-08-08T22:18:30.166Z,101043.97
2022-08-08T22:21:13.923Z,101054.81
2022-08-08T22:23:51.387Z,101059.16
2022-08-08T22:26:30.015Z,101060.13
2022-08-08T22:29:14.853Z,101048.84
2022-08-08T22:32:02.290Z,101055.59
2022-08-08T22:34:33.078Z,101058.13
2022-08-08T22:37:14.782Z,101051.75
2022-08-08T22:40:00.877Z,101059.47
2022-08-08T22:42:34.347Z,101057.91
2022-08-08T22:45:05.302Z,101059.66
2022-08-08T22:47:41.061Z,101066.00
2022-08-08T22:50:27.033Z,101071.38
2022-08-08T22:54:28.481Z,101072.44
2022-08-08T22:55:59.158Z,101071.09
2022-08-08T22:58:34.169Z,101062.81
2022-08-08T23:01:26.484Z,101061.47
2022-08-08T23:04:00.271Z,101064.84
2022-08-08T23:06:30.603Z,101067.53
2022-08-08T23:09:00.476Z,101071.22
2022-08-08T23:12:17.971Z,101070.81
2022-08-08T23:14:25.594Z,101072.53
2022-08-08T23:16:59.223Z,101071.47
2022-08-08T23:19:30.978Z,101066.09
2022-08-08T23:22:04.176Z,101064.66
2022-08-08T23:24:41.683Z,101071.09
2022-08-08T23:27:17.300Z,101069.84
2022-08-08T23:29:59.602Z,101075.16
2022-08-08T23:32:27.526Z,101070.81
2022-08-08T23:34:58.819Z,101072.94
2022-08-08T23:38:00.747Z,101074.66
2022-08-08T23:40:22.058Z,101085.72
2022-08-08T23:42:51.545Z,101075.63
2022-08-08T23:45:19.511Z,101073.13
2022-08-08T23:49:05.199Z,101078.19
2022-08-08T23:50:59.511Z,101076.59
2022-08-08T23:54:05.122Z,101075.22
2022-08-08T23:56:32.012Z,101069.31
2022-08-08T23:59:04.642Z,101069.75
